createdAt,value
2022-11-27T00:01:21.897Z,102035.59
2022-11-27T00:03:49.532Z,102035.16
2022-11-27T00:06:19.371Z,102022.84
2022-11-27T00:08:46.276Z,102020.97
2022-11-27T00:11:15.970Z,102014.09
2022-11-27T00:13:42.804Z,102016.91
2022-11-27T00:16:09.914Z,102017.44
2022-11-27T00:18:36.748Z,102009.28
2022-11-27T00:21:08.000Z,102007.03
2022-11-27T00:23:36.503Z,102006.03
2022-11-27T00:26:04.482Z,102002.31
2022-11-27T00:28:31.740Z,101990.03
2022-11-27T00:31:00.236Z,101980.38
2022-11-27T00:33:26.853Z,101979.56
2022-11-27T00:35:53.741Z,101972.78
2022-11-27T00:38:20.599Z,101966.00
2022-11-27T00:40:47.852Z,101968.69
2022-11-27T00:43:14.507Z,101963.34
2022-11-27T00:45:41.106Z,101958.84
2022-11-27T00:48:07.730Z,101957.84
2022-11-27T00:50:34.337Z,101956.19
2022-11-27T00:53:01.166Z,101960.28
2022-11-27T00:55:27.767Z,101953.38
2022-11-27T00:57:54.305Z,101959.97
2022-11-27T01:00:22.175Z,101960.59
2022-11-27T01:02:48.807Z,101959.97
2022-11-27T01:05:15.468Z,101957.88
2022-11-27T01:07:42.439Z,101950.06
2022-11-27T01:10:09.635Z,101955.78
2022-11-27T01:12:36.266Z,101957.84
2022-11-27T01:15:03.996Z,101953.75
2022-11-27T01:17:30.601Z,101948.41
2022-11-27T01:19:57.226Z,101947.19
2022-11-27T01:22:23.770Z,101952.50
2022-11-27T01:24:50.384Z,101949.22
2022-11-27T01:27:16.979Z,101949.59
2022-11-27T01:29:43.666Z,101944.25
2022-11-27T01:32:10.275Z,101941.59
2022-11-27T01:34:36.857Z,101942.22
2022-11-27T01:37:03.494Z,101936.91
2022-11-27T01:39:30.124Z,101948.78
2022-11-27T01:41:56.749Z,101936.66
2022-11-27T01:44:23.248Z,101932.34
2022-11-27T01:47:07.136Z,101930.31
2022-11-27T01:49:38.779Z,101938.06
2022-11-27T01:52:15.974Z,101935.16
2022-11-27T01:54:42.772Z,101930.41
2022-11-27T01:57:18.980Z,101933.06
2022-11-27T01:59:48.074Z,101941.25
2022-11-27T02:02:14.966Z,101939.34
2022-11-27T02:04:41.784Z,101937.06
2022-11-27T02:07:08.587Z,101939.09
2022-11-27T02:09:35.461Z,101935.19
2022-11-27T02:12:02.405Z,101942.97
2022-11-27T02:14:53.814Z,101932.13
2022-11-27T02:17:28.367Z,101923.91
2022-11-27T02:20:18.741Z,101919.78
2022-11-27T02:23:13.307Z,101931.88
2022-11-27T02:25:52.470Z,101927.56
2022-11-27T02:28:48.175Z,101924.91
2022-11-27T02:31:21.865Z,101931.31
2022-11-27T02:33:55.130Z,101933.50
2022-11-27T02:36:29.588Z,101938.19
2022-11-27T02:39:05.394Z,101934.09
2022-11-27T02:41:53.912Z,101935.69
2022-11-27T02:44:22.732Z,101946.34
2022-11-27T02:46:50.047Z,101944.22
2022-11-27T02:49:18.986Z,101929.22
2022-11-27T02:51:51.030Z,101925.31
2022-11-27T02:54:23.472Z,101922.38
2022-11-27T02:56:53.006Z,101919.47
2022-11-27T02:59:21.875Z,101916.97
2022-11-27T03:01:53.731Z,101905.53
2022-11-27T03:04:28.356Z,101901.47
2022-11-27T03:06:59.314Z,101905.59
2022-11-27T03:09:34.352Z,101896.16
2022-11-27T03:12:02.801Z,101899.81
2022-11-27T03:14:29.584Z,101903.50
2022-11-27T03:17:02.814Z,101889.56
2022-11-27T03:20:09.862Z,101896.50
2022-11-27T03:22:36.498Z,101896.91
2022-11-27T03:25:04.093Z,101894.63
2022-11-27T03:27:37.502Z,101891.94
2022-11-27T03:30:06.974Z,101898.94
2022-11-27T03:32:33.852Z,101884.59
2022-11-27T03:35:00.840Z,101887.41
2022-11-27T03:37:28.295Z,101883.06
2022-11-27T03:39:55.226Z,101885.09
2022-11-27T03:42:53.048Z,101883.91
2022-11-27T03:45:32.971Z,101869.59
2022-11-27T03:48:02.575Z,101869.78
2022-11-27T03:50:54.967Z,101874.06
2022-11-27T03:53:33.649Z,101877.38
2022-11-27T03:56:33.915Z,101869.03
2022-11-27T03:59:07.651Z,101878.19
2022-11-27T04:01:34.506Z,101882.69
2022-11-27T04:04:01.304Z,101879.84
2022-11-27T04:06:27.986Z,101878.00
2022-11-27T04:08:54.647Z,101874.72
2022-11-27T04:11:21.249Z,101865.09
2022-11-27T04:13:47.898Z,101869.16
2022-11-27T04:16:14.551Z,101872.81
2022-11-27T04:18:41.218Z,101866.59
2022-11-27T04:21:07.833Z,101863.25
2022-11-27T04:23:34.578Z,101864.78
2022-11-27T04:26:01.320Z,101867.19
2022-11-27T04:28:27.860Z,101875.16
2022-11-27T04:30:54.875Z,101878.19
2022-11-27T04:33:22.289Z,101873.06
2022-11-27T04:35:50.520Z,101860.97
2022-11-27T04:38:17.917Z,101856.84
2022-11-27T04:40:44.754Z,101858.69
2022-11-27T04:43:11.690Z,101844.47
2022-11-27T04:45:38.572Z,101841.75
2022-11-27T04:48:05.675Z,101840.22
2022-11-27T04:50:32.249Z,101843.44
2022-11-27T04:52:59.910Z,101841.75
2022-11-27T04:55:26.831Z,101831.53
2022-11-27T04:57:53.362Z,101842.16
2022-11-27T05:00:20.736Z,101837.19
2022-11-27T05:02:47.430Z,101844.16
2022-11-27T05:05:14.113Z,101842.50
2022-11-27T05:07:40.739Z,101836.44
2022-11-27T05:10:08.154Z,101845.06
2022-11-27T05:12:34.749Z,101841.03
2022-11-27T05:15:04.465Z,101831.69
2022-11-27T05:17:31.912Z,101844.88
2022-11-27T05:19:59.640Z,101836.72
2022-11-27T05:22:26.211Z,101834.59
2022-11-27T05:24:52.771Z,101830.88
2022-11-27T05:27:19.431Z,101840.28
2022-11-27T05:29:46.960Z,101834.97
2022-11-27T05:32:13.701Z,101825.63
2022-11-27T05:34:40.548Z,101839.56
2022-11-27T05:37:07.714Z,101831.31
2022-11-27T05:39:34.315Z,101835.34
2022-11-27T05:42:00.998Z,101828.63
2022-11-27T05:44:27.648Z,101830.88
2022-11-27T05:46:54.408Z,101826.38
2022-11-27T05:49:21.132Z,101824.44
2022-11-27T05:51:51.407Z,101820.47
2022-11-27T05:54:19.085Z,101822.03
2022-11-27T05:56:45.749Z,101827.59
2022-11-27T05:59:12.734Z,101830.88
2022-11-27T06:01:39.421Z,101823.94
2022-11-27T06:04:06.223Z,101823.09
2022-11-27T06:06:32.874Z,101825.56
2022-11-27T06:08:59.484Z,101824.44
2022-11-27T06:11:26.162Z,101824.06
2022-11-27T06:13:52.876Z,101826.97
2022-11-27T06:16:23.921Z,101828.63
2022-11-27T06:18:52.492Z,101825.78
2022-11-27T06:21:20.673Z,101807.81
2022-11-27T06:23:47.641Z,101816.16
2022-11-27T06:26:24.776Z,101809.75
2022-11-27T06:28:52.062Z,101807.47
2022-11-27T06:31:21.585Z,101801.00
2022-11-27T06:33:49.744Z,101797.22
2022-11-27T06:36:17.497Z,101800.88
2022-11-27T06:38:45.070Z,101800.13
2022-11-27T06:41:14.966Z,101801.41
2022-11-27T06:43:41.915Z,101790.53
2022-11-27T06:46:12.080Z,101775.63
2022-11-27T06:48:38.686Z,101785.56
2022-11-27T06:51:07.439Z,101781.41
2022-11-27T06:53:38.031Z,101780.56
2022-11-27T06:56:06.919Z,101793.78
2022-11-27T06:58:33.457Z,101798.00
2022-11-27T07:01:01.346Z,101793.94
2022-11-27T07:03:28.358Z,101791.91
2022-11-27T07:05:55.093Z,101784.13
2022-11-27T07:08:22.535Z,101773.09
2022-11-27T07:10:49.288Z,101763.66
2022-11-27T07:13:15.962Z,101756.31
2022-11-27T07:15:42.966Z,101759.16
2022-11-27T07:18:09.978Z,101753.22
2022-11-27T07:20:36.720Z,101758.41
2022-11-27T07:23:03.398Z,101752.03
2022-11-27T07:25:29.980Z,101748.22
2022-11-27T07:27:56.536Z,101752.00
2022-11-27T07:30:23.160Z,101732.78
2022-11-27T07:32:49.704Z,101742.34
2022-11-27T07:35:16.422Z,101741.13
2022-11-27T07:37:42.971Z,101749.34
2022-11-27T07:40:09.627Z,101767.97
2022-11-27T07:42:38.681Z,101772.16
2022-11-27T07:45:08.397Z,101771.38
2022-11-27T07:47:34.972Z,101771.75
2022-11-27T07:50:01.775Z,101772.59
2022-11-27T07:52:28.375Z,101771.44
2022-11-27T07:54:55.058Z,101761.44
2022-11-27T07:57:21.872Z,101746.91
2022-11-27T07:59:48.558Z,101731.75
2022-11-27T08:02:15.346Z,101740.19
2022-11-27T08:04:42.393Z,101751.50
2022-11-27T08:07:09.230Z,101740.72
2022-11-27T08:09:35.984Z,101724.75
2022-11-27T08:12:02.621Z,101708.31
2022-11-27T08:14:29.258Z,101704.03
2022-11-27T08:16:56.263Z,101697.38
2022-11-27T08:19:23.092Z,101680.72
2022-11-27T08:21:50.067Z,101681.91
2022-11-27T08:24:16.740Z,101678.97
2022-11-27T08:26:43.779Z,101681.00
2022-11-27T08:29:13.394Z,101696.31
2022-11-27T08:31:40.320Z,101703.81
2022-11-27T08:34:06.996Z,101707.66
2022-11-27T08:36:33.712Z,101699.34
2022-11-27T08:39:01.328Z,101690.59
2022-11-27T08:41:28.163Z,101687.34
2022-11-27T08:43:54.851Z,101695.50
2022-11-27T08:46:21.437Z,101690.56
2022-11-27T08:48:48.286Z,101692.50
2022-11-27T08:51:15.622Z,101694.53
2022-11-27T08:53:45.495Z,101694.53
2022-11-27T08:56:18.528Z,101684.47
2022-11-27T08:58:45.839Z,101693.28
2022-11-27T09:01:18.391Z,101704.41
2022-11-27T09:03:45.136Z,101705.69
2022-11-27T09:06:15.569Z,101702.63
2022-11-27T09:08:43.670Z,101692.03
2022-11-27T09:11:12.313Z,101677.25
2022-11-27T09:13:40.356Z,101669.44
2022-11-27T09:16:18.814Z,101672.69
2022-11-27T09:18:47.325Z,101671.66
2022-11-27T09:21:17.924Z,101669.78
2022-11-27T09:23:44.721Z,101670.41
2022-11-27T09:26:17.240Z,101669.78
2022-11-27T09:28:44.773Z,101668.06
2022-11-27T09:31:19.649Z,101661.38
2022-11-27T09:33:46.558Z,101665.63
2022-11-27T09:36:16.808Z,101674.44
2022-11-27T09:38:46.436Z,101667.84
2022-11-27T09:41:22.493Z,101667.16
2022-11-27T09:43:52.398Z,101671.00
2022-11-27T09:46:40.987Z,101670.38
2022-11-27T09:49:12.536Z,101671.13
2022-11-27T09:51:47.044Z,101658.38
2022-11-27T09:54:32.316Z,101645.03
2022-11-27T09:56:59.517Z,101637.97
2022-11-27T09:59:35.541Z,101637.22
2022-11-27T10:02:02.312Z,101644.13
2022-11-27T10:04:36.186Z,101637.19
2022-11-27T10:07:23.757Z,101638.56
2022-11-27T10:10:35.617Z,101624.47
2022-11-27T10:13:25.633Z,101620.31
2022-11-27T10:16:04.199Z,101614.16
2022-11-27T10:18:54.680Z,101603.56
2022-11-27T10:21:45.574Z,101600.44
2022-11-27T10:24:44.323Z,101592.13
2022-11-27T10:27:23.257Z,101584.66
2022-11-27T10:29:55.746Z,101582.03
2022-11-27T10:32:53.986Z,101572.06
2022-11-27T10:35:20.138Z,101569.91
2022-11-27T10:38:13.097Z,101566.31
2022-11-27T10:40:55.556Z,101552.81
2022-11-27T10:43:24.425Z,101549.25
2022-11-27T10:45:56.732Z,101547.81
2022-11-27T10:48:25.101Z,101537.59
2022-11-27T10:50:51.987Z,101535.28
2022-11-27T10:53:27.534Z,101536.19
2022-11-27T10:56:06.245Z,101523.31
2022-11-27T10:58:47.444Z,101517.34
2022-11-27T11:01:25.250Z,101519.91
2022-11-27T11:04:24.356Z,101504.88
2022-11-27T11:06:52.180Z,101496.75
2022-11-27T11:09:31.872Z,101500.06
2022-11-27T11:12:21.288Z,101499.97
2022-11-27T11:14:55.749Z,101486.94
2022-11-27T11:17:35.119Z,101483.81
2022-11-27T11:20:18.821Z,101482.56
2022-11-27T11:22:47.379Z,101473.50
2022-11-27T11:25:19.198Z,101469.53
2022-11-27T11:27:47.946Z,101455.38
2022-11-27T11:30:28.747Z,101456.41
2022-11-27T11:33:14.071Z,101457.81
2022-11-27T11:36:06.970Z,101452.44
2022-11-27T11:38:33.831Z,101455.16
2022-11-27T11:41:04.675Z,101449.97
2022-11-27T11:43:35.706Z,101448.63
2022-11-27T11:46:19.233Z,101438.25
2022-11-27T11:48:58.568Z,101442.50
2022-11-27T11:52:09.485Z,101434.75
2022-11-27T11:55:02.801Z,101421.34
2022-11-27T11:57:41.339Z,101423.91
2022-11-27T12:00:53.143Z,101419.22
2022-11-27T12:03:38.533Z,101421.25
2022-11-27T12:06:20.218Z,101410.97
2022-11-27T12:09:19.909Z,101411.56
2022-11-27T12:11:46.345Z,101406.47
2022-11-27T12:14:22.194Z,101398.75
2022-11-27T12:17:13.541Z,101395.50
2022-11-27T12:20:03.183Z,101387.22
2022-11-27T12:22:37.172Z,101372.91
2022-11-27T12:25:12.940Z,101366.19
2022-11-27T12:27:51.980Z,101364.94
2022-11-27T12:30:22.112Z,101370.56
2022-11-27T12:32:51.834Z,101366.91
2022-11-27T12:35:24.524Z,101361.13
2022-11-27T12:38:25.623Z,101355.53
2022-11-27T12:41:16.048Z,101358.78
2022-11-27T12:43:50.719Z,101361.72
2022-11-27T12:46:37.577Z,101358.88
2022-11-27T12:49:16.886Z,101362.09
2022-11-27T12:51:51.785Z,101362.41
2022-11-27T12:54:26.188Z,101357.69
2022-11-27T12:57:00.366Z,101343.19
2022-11-27T12:59:56.980Z,101339.50
2022-11-27T13:02:42.359Z,101338.25
2022-11-27T13:05:42.423Z,101343.44
2022-11-27T13:08:16.149Z,101355.00
2022-11-27T13:10:54.236Z,101342.34
2022-11-27T13:13:44.226Z,101337.66
2022-11-27T13:16:27.585Z,101347.19
2022-11-27T13:19:12.158Z,101344.09
2022-11-27T13:21:43.588Z,101345.88
2022-11-27T13:24:20.832Z,101338.31
2022-11-27T13:27:05.768Z,101330.56
2022-11-27T13:29:53.286Z,101333.41
2022-11-27T13:32:33.566Z,101334.53
2022-11-27T13:35:22.013Z,101337.84
2022-11-27T13:37:55.296Z,101329.50
2022-11-27T13:40:27.329Z,101334.81
2022-11-27T13:42:57.253Z,101334.16
2022-11-27T13:45:24.303Z,101332.19
2022-11-27T13:48:01.051Z,101325.19
2022-11-27T13:50:31.847Z,101329.88
2022-11-27T13:53:12.066Z,101318.44
2022-11-27T13:55:52.221Z,101311.94
2022-11-27T13:58:51.607Z,101303.88
2022-11-27T14:01:24.085Z,101283.41
2022-11-27T14:03:51.526Z,101275.84
2022-11-27T14:06:39.075Z,101271.22
2022-11-27T14:09:07.408Z,101271.81
2022-11-27T14:11:41.349Z,101250.13
2022-11-27T14:14:20.849Z,101252.59
2022-11-27T14:17:25.280Z,101237.66
2022-11-27T14:20:02.763Z,101226.06
2022-11-27T14:23:07.215Z,101218.81
2022-11-27T14:25:33.797Z,101202.63
2022-11-27T14:28:26.257Z,101206.34
2022-11-27T14:31:02.157Z,101199.72
2022-11-27T14:33:47.501Z,101200.09
2022-11-27T14:36:34.713Z,101200.22
2022-11-27T14:39:24.605Z,101192.06
2022-11-27T14:42:27.909Z,101192.41
2022-11-27T14:45:08.754Z,101189.84
2022-11-27T14:47:41.041Z,101192.53
2022-11-27T14:50:17.584Z,101196.72
2022-11-27T14:52:50.945Z,101203.91
2022-11-27T14:55:19.804Z,101215.56
2022-11-27T14:57:59.358Z,101214.72
2022-11-27T15:00:34.180Z,101213.69
2022-11-27T15:03:13.171Z,101212.19
2022-11-27T15:05:40.126Z,101203.44
2022-11-27T15:08:10.501Z,101198.06
2022-11-27T15:10:48.534Z,101198.34
2022-11-27T15:13:31.627Z,101191.13
2022-11-27T15:16:15.016Z,101195.28
2022-11-27T15:18:43.889Z,101192.38
2022-11-27T15:21:20.419Z,101190.88
2022-11-27T15:23:50.351Z,101176.22
2022-11-27T15:26:47.489Z,101180.84
2022-11-27T15:29:38.477Z,101175.88
2022-11-27T15:32:24.619Z,101169.72
2022-11-27T15:34:54.481Z,101164.81
2022-11-27T15:37:35.401Z,101159.47
2022-11-27T15:40:08.039Z,101152.50
2022-11-27T15:42:34.942Z,101154.09
2022-11-27T15:45:07.393Z,101158.19
2022-11-27T15:47:37.332Z,101156.19
2022-11-27T15:50:06.673Z,101155.63
2022-11-27T15:52:33.699Z,101154.69
2022-11-27T15:55:03.073Z,101144.56
2022-11-27T15:57:36.936Z,101132.00
2022-11-27T16:00:04.764Z,101129.66
2022-11-27T16:02:38.378Z,101120.97
2022-11-27T16:05:12.402Z,101112.47
2022-11-27T16:07:39.801Z,101108.03
2022-11-27T16:10:07.075Z,101103.16
2022-11-27T16:12:39.791Z,101104.66
2022-11-27T16:15:07.876Z,101110.03
2022-11-27T16:17:35.097Z,101109.75
2022-11-27T16:20:02.003Z,101110.03
2022-11-27T16:22:28.694Z,101102.22
2022-11-27T16:24:55.449Z,101108.22
2022-11-27T16:27:22.205Z,101099.03
2022-11-27T16:29:49.206Z,101103.31
2022-11-27T16:32:15.911Z,101097.19
2022-11-27T16:34:42.734Z,101102.16
2022-11-27T16:37:18.104Z,101097.72
2022-11-27T16:39:45.532Z,101093.66
2022-11-27T16:42:12.547Z,101086.34
2022-11-27T16:44:39.481Z,101092.75
2022-11-27T16:47:06.475Z,101092.75
2022-11-27T16:49:33.367Z,101086.34
2022-11-27T16:52:00.717Z,101078.91
2022-11-27T16:54:28.627Z,101076.00
2022-11-27T16:56:56.116Z,101068.81
2022-11-27T16:59:23.098Z,101073.34
2022-11-27T17:01:49.919Z,101064.97
2022-11-27T17:04:19.551Z,101067.03
2022-11-27T17:06:48.115Z,101065.44
2022-11-27T17:09:15.736Z,101057.16
2022-11-27T17:11:45.502Z,101050.53
2022-11-27T17:14:12.495Z,101036.63
2022-11-27T17:16:41.267Z,101027.44
2022-11-27T17:19:13.308Z,101013.56
2022-11-27T17:21:41.491Z,100998.84
2022-11-27T17:24:15.327Z,100995.59
2022-11-27T17:26:47.297Z,101002.19
2022-11-27T17:29:16.880Z,101005.94
2022-11-27T17:31:43.676Z,101012.03
2022-11-27T17:34:17.675Z,101016.09
2022-11-27T17:36:45.323Z,101023.78
2022-11-27T17:39:14.481Z,101035.63
2022-11-27T17:41:44.373Z,101044.59
2022-11-27T17:44:14.183Z,101046.00
2022-11-27T17:46:41.024Z,101028.94
2022-11-27T17:49:08.431Z,101026.59
2022-11-27T17:51:39.319Z,101016.34
2022-11-27T17:54:06.511Z,101012.41
2022-11-27T17:56:34.906Z,101004.91
2022-11-27T17:59:02.996Z,100986.22
2022-11-27T18:01:30.778Z,100984.47
2022-11-27T18:04:03.599Z,100980.03
2022-11-27T18:06:31.040Z,100987.44
2022-11-27T18:09:00.789Z,100984.09
2022-11-27T18:11:31.132Z,100971.69
2022-11-27T18:14:01.151Z,100957.88
2022-11-27T18:16:44.232Z,100955.69
2022-11-27T18:19:11.569Z,100965.19
2022-11-27T18:21:39.483Z,100951.94
2022-11-27T18:24:22.904Z,100945.66
2022-11-27T18:29:39.908Z,100925.19
2022-11-27T18:32:14.027Z,100921.03
2022-11-27T18:34:41.701Z,100926.28
2022-11-27T18:37:08.805Z,100925.84
2022-11-27T18:39:37.166Z,100923.16
2022-11-27T18:42:05.350Z,100915.28
2022-11-27T18:44:37.249Z,100918.88
2022-11-27T18:47:10.672Z,100923.19
2022-11-27T18:49:38.999Z,100923.41
2022-11-27T18:52:07.027Z,100931.00
2022-11-27T18:54:34.005Z,100923.41
2022-11-27T18:57:01.694Z,100882.06
2022-11-27T18:59:30.571Z,100893.44
2022-11-27T19:02:11.511Z,100899.69
2022-11-27T19:04:39.377Z,100896.47
2022-11-27T19:07:07.264Z,100886.81
2022-11-27T19:09:33.987Z,100889.84
2022-11-27T19:12:00.893Z,100893.44
2022-11-27T19:14:28.333Z,100880.13
2022-11-27T19:16:55.219Z,100873.72
2022-11-27T19:22:15.630Z,100862.09
2022-11-27T19:24:44.960Z,100872.09
2022-11-27T19:27:13.023Z,100860.59
2022-11-27T19:29:40.372Z,100849.78
2022-11-27T19:32:07.328Z,100847.44
2022-11-27T19:34:34.418Z,100859.78
2022-11-27T19:37:07.753Z,100856.75
2022-11-27T19:39:34.711Z,100852.31
2022-11-27T19:42:03.886Z,100858.50
2022-11-27T19:44:30.945Z,100865.22
2022-11-27T19:46:57.701Z,100857.31
2022-11-27T19:49:26.061Z,100844.88
2022-11-27T19:51:55.818Z,100838.00
2022-11-27T19:54:23.792Z,100833.94
2022-11-27T19:56:51.209Z,100835.78
2022-11-27T19:59:24.260Z,100835.78
2022-11-27T20:01:53.542Z,100832.09
2022-11-27T20:04:25.426Z,100835.34
2022-11-27T20:06:53.197Z,100823.00
2022-11-27T20:09:23.481Z,100822.81
2022-11-27T20:11:53.619Z,100835.34
2022-11-27T20:14:22.014Z,100838.22
2022-11-27T20:16:50.525Z,100844.38
2022-11-27T20:19:20.876Z,100832.53
2022-11-27T20:21:50.657Z,100842.34
2022-11-27T20:24:22.557Z,100832.59
2022-11-27T20:26:52.436Z,100830.50
2022-11-27T20:29:24.084Z,100835.38
2022-11-27T20:31:51.236Z,100836.19
2022-11-27T20:34:21.128Z,100815.16
2022-11-27T20:36:48.926Z,100827.47
2022-11-27T20:39:20.821Z,100823.75
2022-11-27T20:41:52.011Z,100817.56
2022-11-27T20:44:25.437Z,100815.03
2022-11-27T20:46:54.623Z,100817.47
2022-11-27T20:49:22.962Z,100814.69
2022-11-27T20:51:50.815Z,100806.34
2022-11-27T20:54:22.985Z,100809.34
2022-11-27T20:56:51.172Z,100808.19
2022-11-27T20:59:19.073Z,100806.66
2022-11-27T21:01:48.636Z,100805.63
2022-11-27T21:04:23.157Z,100802.13
2022-11-27T21:06:50.903Z,100803.53
2022-11-27T21:09:21.945Z,100801.44
2022-11-27T21:11:48.941Z,100794.81
2022-11-27T21:14:16.586Z,100793.50
2022-11-27T21:16:51.507Z,100787.22
2022-11-27T21:19:27.890Z,100792.91
2022-11-27T21:21:56.645Z,100790.81
2022-11-27T21:24:27.423Z,100786.28
2022-11-27T21:26:55.270Z,100784.19
2022-11-27T21:29:25.592Z,100780.44
2022-11-27T21:31:54.014Z,100777.34
2022-11-27T21:34:21.025Z,100767.56
2022-11-27T21:36:49.583Z,100768.31
2022-11-27T21:39:23.831Z,100764.84
2022-11-27T21:41:54.746Z,100766.38
2022-11-27T21:44:24.697Z,100763.13
2022-11-27T21:46:52.222Z,100771.63
2022-11-27T21:49:20.520Z,100760.28
2022-11-27T21:51:52.019Z,100749.91
2022-11-27T21:54:19.494Z,100742.97
2022-11-27T21:56:46.439Z,100737.88
2022-11-27T21:59:14.160Z,100719.44
2022-11-27T22:01:41.160Z,100725.69
2022-11-27T22:04:07.848Z,100717.69
2022-11-27T22:06:40.323Z,100714.16
2022-11-27T22:09:13.355Z,100720.16
2022-11-27T22:11:42.571Z,100721.44
2022-11-27T22:14:09.946Z,100723.47
2022-11-27T22:16:44.739Z,100731.28
2022-11-27T22:19:12.383Z,100726.63
2022-11-27T22:21:39.146Z,100729.38
2022-11-27T22:24:12.052Z,100725.97
2022-11-27T22:26:49.044Z,100723.41
2022-11-27T22:29:16.829Z,100716.78
2022-11-27T22:31:46.346Z,100711.44
2022-11-27T22:34:18.187Z,100698.63
2022-11-27T22:36:49.801Z,100707.22
2022-11-27T22:39:19.731Z,100684.78
2022-11-27T22:41:46.981Z,100681.66
2022-11-27T22:44:21.375Z,100678.63
2022-11-27T22:46:49.207Z,100674.00
2022-11-27T22:49:18.141Z,100668.66
2022-11-27T22:51:46.040Z,100672.38
2022-11-27T22:54:17.218Z,100664.91
2022-11-27T22:56:48.898Z,100666.56
2022-11-27T22:59:34.729Z,100669.22
2022-11-27T23:02:04.843Z,100668.66
2022-11-27T23:04:32.752Z,100675.59
2022-11-27T23:07:00.004Z,100673.50
2022-11-27T23:09:28.197Z,100678.41
2022-11-27T23:11:56.502Z,100682.69
2022-11-27T23:14:24.797Z,100677.25
2022-11-27T23:16:51.473Z,100677.25
2022-11-27T23:19:18.341Z,100683.63
2022-11-27T23:21:44.928Z,100675.59
2022-11-27T23:24:14.120Z,100673.19
2022-11-27T23:26:41.331Z,100661.81
2022-11-27T23:29:08.245Z,100649.66
2022-11-27T23:31:36.330Z,100656.06
2022-11-27T23:34:07.567Z,100649.19
2022-11-27T23:36:34.836Z,100644.31
2022-11-27T23:39:03.740Z,100640.03
2022-11-27T23:41:31.628Z,100636.06
2022-11-27T23:43:58.462Z,100644.41
2022-11-27T23:46:28.505Z,100648.69
2022-11-27T23:48:57.770Z,100631.53
2022-11-27T23:51:27.145Z,100634.91
2022-11-27T23:53:54.482Z,100629.09
2022-11-27T23:56:27.645Z,100629.34
2022-11-27T23:58:56.517Z,100623.84
